createdAt,value
2022-12-18T00:00:57.403Z,-0.35
2022-12-18T00:06:17.745Z,2.12
2022-12-18T00:11:23.195Z,1.65
2022-12-18T00:16:27.103Z,-0.60
2022-12-18T00:21:46.469Z,-0.73
2022-12-18T00:26:48.951Z,1.55
2022-12-18T00:31:51.638Z,2.05
2022-12-18T00:36:54.341Z,-0.43
2022-12-18T00:41:59.838Z,-1.20
2022-12-18T00:47:02.375Z,1.29
2022-12-18T00:52:05.452Z,1.57
2022-12-18T00:57:07.951Z,-0.88
2022-12-18T01:02:10.608Z,-2.31
2022-12-18T01:07:13.144Z,-0.54
2022-12-18T01:12:15.815Z,1.80
2022-12-18T01:17:18.423Z,0.52
2022-12-18T01:22:20.949Z,-1.52
2022-12-18T01:27:23.474Z,-2.81
2022-12-18T01:32:25.993Z,-3.73
2022-12-18T01:37:28.597Z,-4.31
2022-12-18T01:42:31.140Z,-1.90
2022-12-18T01:47:37.590Z,0.68
2022-12-18T01:52:43.210Z,-0.02
2022-12-18T01:57:45.974Z,-2.35
2022-12-18T02:02:49.035Z,-2.95
2022-12-18T02:08:19.297Z,-0.23
2022-12-18T02:13:33.280Z,1.13
2022-12-18T02:18:45.129Z,-1.20
2022-12-18T02:23:50.539Z,-2.91
2022-12-18T02:28:59.613Z,-1.62
2022-12-18T02:34:05.737Z,0.94
2022-12-18T02:39:09.952Z,-0.32
2022-12-18T02:44:14.522Z,-2.39
2022-12-18T02:49:23.072Z,-3.50
2022-12-18T02:54:32.499Z,-3.18
2022-12-18T02:59:43.968Z,-0.19
2022-12-18T03:04:55.482Z,0.54
2022-12-18T03:09:59.092Z,-2.01
2022-12-18T03:15:15.939Z,-3.58
2022-12-18T03:20:22.994Z,-4.48
2022-12-18T03:25:27.653Z,-2.60
2022-12-18T03:30:34.855Z,0.14
2022-12-18T03:35:41.127Z,1.41
2022-12-18T03:40:51.851Z,2.22
2022-12-18T03:46:03.878Z,2.74
2022-12-18T03:51:10.964Z,3.14
2022-12-18T03:56:17.092Z,3.50
2022-12-18T04:01:21.899Z,3.74
2022-12-18T04:06:24.556Z,3.62
2022-12-18T04:11:27.316Z,3.68
2022-12-18T04:16:30.103Z,3.84
2022-12-18T04:21:32.581Z,4.03
2022-12-18T04:26:35.193Z,4.12
2022-12-18T04:31:37.878Z,3.95
2022-12-18T04:36:40.402Z,4.13
2022-12-18T04:41:42.863Z,4.18
2022-12-18T04:46:45.434Z,4.19
2022-12-18T04:51:48.000Z,4.23
2022-12-18T04:56:50.543Z,4.31
2022-12-18T05:01:53.241Z,4.51
2022-12-18T05:06:55.868Z,4.63
2022-12-18T05:11:58.344Z,4.65
2022-12-18T05:17:01.408Z,4.67
2022-12-18T05:22:04.039Z,4.79
2022-12-18T05:27:06.566Z,4.86
2022-12-18T05:32:09.035Z,5.06
2022-12-18T05:37:11.526Z,5.09
2022-12-18T05:42:13.996Z,4.96
2022-12-18T05:47:16.747Z,2.29
2022-12-18T05:52:19.307Z,-0.09
2022-12-18T05:57:21.823Z,-1.50
2022-12-18T06:02:24.430Z,-2.42
2022-12-18T06:07:27.141Z,-3.00
2022-12-18T06:12:29.615Z,-3.38
2022-12-18T06:17:33.494Z,-3.65
2022-12-18T06:22:36.096Z,-3.84
2022-12-18T06:27:38.653Z,-2.86
2022-12-18T06:32:41.231Z,0.58
2022-12-18T06:37:43.736Z,2.72
2022-12-18T06:42:46.434Z,2.95
2022-12-18T06:47:48.889Z,0.76
2022-12-18T06:52:51.403Z,-0.60
2022-12-18T06:57:53.932Z,-1.49
2022-12-18T07:02:56.461Z,0.09
2022-12-18T07:07:59.707Z,2.58
2022-12-18T07:13:02.183Z,2.66
2022-12-18T07:18:04.794Z,0.50
2022-12-18T07:23:07.612Z,-0.81
2022-12-18T07:28:15.627Z,-0.33
2022-12-18T07:33:19.760Z,2.20
2022-12-18T07:38:22.951Z,3.54
2022-12-18T07:43:25.398Z,3.20
2022-12-18T07:48:29.425Z,0.82
2022-12-18T07:53:33.337Z,0.05
2022-12-18T07:58:36.533Z,2.43
2022-12-18T08:03:40.983Z,3.77
2022-12-18T08:08:45.207Z,2.14
2022-12-18T08:13:47.662Z,0.18
2022-12-18T08:18:50.632Z,-0.97
2022-12-18T08:23:54.854Z,-1.72
2022-12-18T08:28:59.457Z,-0.53
2022-12-18T08:34:02.007Z,2.24
2022-12-18T08:39:04.520Z,2.56
2022-12-18T08:44:11.542Z,0.38
2022-12-18T08:49:14.238Z,0.95
2022-12-18T08:54:16.702Z,3.16
2022-12-18T08:59:20.786Z,1.67
2022-12-18T09:04:23.558Z,1.17
2022-12-18T09:09:26.048Z,3.14
2022-12-18T09:14:28.550Z,1.35
2022-12-18T09:19:31.241Z,2.58
2022-12-18T09:24:33.782Z,1.92
2022-12-18T09:29:36.242Z,0.17
2022-12-18T09:34:38.729Z,-0.81
2022-12-18T09:39:41.210Z,-0.14
2022-12-18T09:44:48.935Z,3.13
2022-12-18T09:49:57.409Z,2.70
2022-12-18T09:55:05.804Z,1.58
2022-12-18T10:00:19.573Z,2.81
2022-12-18T10:05:34.934Z,0.91
2022-12-18T10:10:49.696Z,-0.15
2022-12-18T10:15:59.372Z,2.36
2022-12-18T10:21:12.769Z,2.43
2022-12-18T10:26:15.421Z,0.69
2022-12-18T10:31:24.758Z,-0.19
2022-12-18T10:36:27.720Z,0.10
2022-12-18T10:41:31.824Z,2.99
2022-12-18T10:46:34.464Z,2.31
2022-12-18T10:51:38.622Z,0.56
2022-12-18T10:56:41.678Z,-0.25
2022-12-18T11:01:50.452Z,-0.68
2022-12-18T11:06:54.784Z,0.11
2022-12-18T11:12:00.436Z,3.07
2022-12-18T11:17:25.428Z,2.55
2022-12-18T11:22:32.316Z,0.68
2022-12-18T11:27:34.827Z,0.34
2022-12-18T11:32:40.284Z,2.87
2022-12-18T11:37:47.064Z,2.42
2022-12-18T11:42:55.668Z,0.68
2022-12-18T11:48:01.393Z,-0.27
2022-12-18T11:53:06.265Z,-0.48
2022-12-18T11:58:18.275Z,2.25
2022-12-18T12:03:40.111Z,2.37
2022-12-18T12:08:57.268Z,0.38
2022-12-18T12:14:02.663Z,1.37
2022-12-18T12:19:08.074Z,2.81
2022-12-18T12:24:10.500Z,0.85
2022-12-18T12:29:21.299Z,-0.51
2022-12-18T12:34:35.579Z,-1.31
2022-12-18T12:39:41.635Z,-0.74
2022-12-18T12:44:56.209Z,2.23
2022-12-18T12:50:08.089Z,2.18
2022-12-18T12:55:16.951Z,0.05
2022-12-18T13:00:20.965Z,-1.14
2022-12-18T13:05:30.029Z,-1.88
2022-12-18T13:10:34.008Z,-1.29
2022-12-18T13:15:41.969Z,1.75
2022-12-18T13:20:53.715Z,2.00
2022-12-18T13:26:28.146Z,-0.26
2022-12-18T13:31:37.514Z,-1.62
2022-12-18T13:36:40.418Z,-1.33
2022-12-18T13:41:43.637Z,1.44
2022-12-18T13:46:47.799Z,2.23
2022-12-18T13:51:52.700Z,-0.12
2022-12-18T13:56:55.655Z,-1.83
2022-12-18T14:02:02.996Z,-2.95
2022-12-18T14:07:11.598Z,-2.52
2022-12-18T14:12:25.648Z,0.41
2022-12-18T14:17:28.485Z,1.02
2022-12-18T14:22:31.754Z,-1.58
2022-12-18T14:27:39.854Z,-3.15
2022-12-18T14:32:42.328Z,-0.98
2022-12-18T14:37:44.811Z,0.97
2022-12-18T14:42:47.378Z,-0.45
2022-12-18T14:47:49.874Z,-2.59
2022-12-18T14:52:53.335Z,-2.48
2022-12-18T14:57:57.199Z,0.25
2022-12-18T15:02:59.841Z,1.66
2022-12-18T15:08:03.521Z,-0.30
2022-12-18T15:13:06.319Z,-1.66
2022-12-18T15:18:08.760Z,0.46
2022-12-18T15:23:16.080Z,1.14
2022-12-18T15:28:24.662Z,-1.36
2022-12-18T15:33:31.937Z,-2.75
2022-12-18T15:38:34.462Z,-0.78
2022-12-18T15:43:39.151Z,1.38
2022-12-18T15:48:45.799Z,-0.07
2022-12-18T15:53:51.097Z,-2.04
2022-12-18T15:58:53.585Z,-3.14
2022-12-18T16:03:57.033Z,-3.86
2022-12-18T16:08:59.774Z,-4.37
2022-12-18T16:14:02.314Z,-3.41
2022-12-18T16:19:05.029Z,0.09
2022-12-18T16:24:15.796Z,1.76
2022-12-18T16:29:19.208Z,0.72
2022-12-18T16:34:28.755Z,-1.67
2022-12-18T16:39:31.758Z,-2.99
2022-12-18T16:44:34.827Z,-2.66
2022-12-18T16:49:38.454Z,0.36
2022-12-18T16:54:40.964Z,1.78
2022-12-18T16:59:43.800Z,-0.26
2022-12-18T17:04:47.309Z,-2.03
2022-12-18T17:09:52.005Z,-2.25
2022-12-18T17:14:54.512Z,0.68
2022-12-18T17:19:57.076Z,2.05
2022-12-18T17:24:59.573Z,0.01
2022-12-18T17:30:02.582Z,-1.82
2022-12-18T17:35:07.373Z,-2.16
2022-12-18T17:40:10.576Z,0.45
2022-12-18T17:45:13.046Z,1.71
2022-12-18T17:50:15.690Z,-0.28
2022-12-18T17:55:18.319Z,-2.19
2022-12-18T18:01:38.518Z,-3.11
2022-12-18T18:06:53.182Z,0.22
2022-12-18T18:11:58.655Z,1.84
2022-12-18T18:17:04.664Z,-0.09
2022-12-18T18:22:07.524Z,-1.88
2022-12-18T18:27:10.383Z,-2.94
2022-12-18T18:32:12.998Z,-3.71
2022-12-18T18:37:15.475Z,-3.22
2022-12-18T18:42:17.942Z,-0.29
2022-12-18T18:47:20.948Z,-0.42
2022-12-18T18:52:23.590Z,-2.68
2022-12-18T18:57:30.294Z,-4.03
2022-12-18T19:02:33.364Z,-4.05
2022-12-18T19:07:36.025Z,-1.09
2022-12-18T19:12:41.517Z,0.77
2022-12-18T19:17:46.951Z,1.77
2022-12-18T19:22:54.988Z,2.42
2022-12-18T19:27:58.323Z,2.94
2022-12-18T19:33:09.756Z,3.20
2022-12-18T19:38:23.271Z,3.24
2022-12-18T19:43:25.921Z,3.37
2022-12-18T19:48:29.243Z,3.60
2022-12-18T19:53:32.031Z,3.73
2022-12-18T19:58:35.140Z,3.66
2022-12-18T20:03:37.925Z,3.56
2022-12-18T20:08:41.480Z,3.53
2022-12-18T20:13:44.842Z,3.53
2022-12-18T20:18:49.064Z,3.47
2022-12-18T20:23:52.458Z,3.32
2022-12-18T20:28:55.801Z,3.15
2022-12-18T20:34:01.484Z,3.14
2022-12-18T20:39:06.541Z,3.06
2022-12-18T20:44:21.772Z,3.01
2022-12-18T20:49:27.310Z,3.00
2022-12-18T20:54:29.969Z,3.17
2022-12-18T20:59:32.647Z,3.35
2022-12-18T21:04:35.141Z,3.30
2022-12-18T21:09:38.650Z,2.99
2022-12-18T21:14:42.816Z,2.87
2022-12-18T21:19:45.278Z,2.83
2022-12-18T21:24:48.899Z,2.85
2022-12-18T21:29:52.247Z,2.80
2022-12-18T21:34:55.235Z,2.84
2022-12-18T21:39:57.725Z,2.68
2022-12-18T21:45:00.372Z,2.50
2022-12-18T21:50:03.143Z,2.41
2022-12-18T21:55:09.341Z,2.43
2022-12-18T22:00:18.752Z,2.59
2022-12-18T22:05:22.326Z,2.73
2022-12-18T22:10:24.795Z,2.89
2022-12-18T22:15:27.349Z,2.97
2022-12-18T22:20:30.270Z,2.88
2022-12-18T22:25:33.988Z,2.78
2022-12-18T22:30:37.706Z,2.78
2022-12-18T22:35:40.261Z,2.78
2022-12-18T22:40:43.625Z,2.76
2022-12-18T22:45:47.263Z,2.70
2022-12-18T22:50:49.865Z,2.49
2022-12-18T22:56:00.463Z,2.32
2022-12-18T23:01:03.046Z,2.25
2022-12-18T23:06:06.977Z,2.19
2022-12-18T23:11:10.700Z,2.06
2022-12-18T23:16:16.413Z,2.03
2022-12-18T23:21:20.644Z,2.20
2022-12-18T23:26:25.396Z,2.47
2022-12-18T23:31:30.633Z,2.76
2022-12-18T23:36:43.883Z,3.00
2022-12-18T23:41:49.187Z,3.17
2022-12-18T23:46:51.800Z,3.17
2022-12-18T23:51:55.031Z,3.20
2022-12-18T23:56:57.544Z,3.25
